createdAt,value
2019-05-28T00:00:01.195Z,99.90
2019-05-28T00:09:56.903Z,99.90
2019-05-28T00:20:02.498Z,99.90
2019-05-28T00:30:19.000Z,99.90
2019-05-28T00:40:16.651Z,99.90
2019-05-28T00:50:23.125Z,99.90
2019-05-28T01:00:46.168Z,99.90
2019-05-28T01:10:52.658Z,99.90
2019-05-28T01:21:00.635Z,99.90
2019-05-28T01:31:07.977Z,99.90
2019-05-28T01:41:17.989Z,99.90
2019-05-28T01:51:23.777Z,99.90
2019-05-28T02:01:31.055Z,99.90
2019-05-28T02:11:36.823Z,99.90
2019-05-28T02:21:42.716Z,99.90
2019-05-28T02:31:49.186Z,99.90
2019-05-28T02:41:55.615Z,99.90
2019-05-28T02:52:02.143Z,99.90
2019-05-28T03:02:09.043Z,99.90
2019-05-28T03:12:14.890Z,99.90
2019-05-28T03:22:22.469Z,99.90
2019-05-28T03:32:34.057Z,99.90
2019-05-28T03:42:39.950Z,99.90
2019-05-28T03:52:47.817Z,99.90
2019-05-28T04:02:54.959Z,99.90
2019-05-28T04:13:00.844Z,99.90
2019-05-28T04:23:10.967Z,99.90
2019-05-28T04:33:17.034Z,99.90
2019-05-28T04:43:23.594Z,99.90
2019-05-28T04:53:29.830Z,99.90
2019-05-28T05:03:37.008Z,99.90
2019-05-28T05:13:42.550Z,99.90
2019-05-28T05:23:48.544Z,99.90
2019-05-28T05:33:55.346Z,99.90
2019-05-28T05:44:03.954Z,99.90
2019-05-28T05:54:12.926Z,99.90
2019-05-28T06:04:23.050Z,99.90
2019-05-28T06:14:29.421Z,99.90
2019-05-28T06:24:39.086Z,99.90
2019-05-28T06:34:46.038Z,99.90
2019-05-28T06:44:52.467Z,99.90
2019-05-28T06:55:00.564Z,99.90
2019-05-28T07:05:09.785Z,99.90
2019-05-28T07:15:16.957Z,99.90
2019-05-28T07:25:28.347Z,99.90
2019-05-28T07:35:45.274Z,99.90
2019-05-28T07:45:44.942Z,99.90
2019-05-28T07:55:51.209Z,94.50
2019-05-28T08:05:58.329Z,96.30
2019-05-28T08:16:17.481Z,95.40
2019-05-28T08:26:12.418Z,99.90
2019-05-28T08:36:20.073Z,99.90
2019-05-28T08:46:27.549Z,99.90
2019-05-28T08:56:39.451Z,99.90
2019-05-28T09:06:45.770Z,99.90
2019-05-28T09:16:52.427Z,99.90
2019-05-28T09:26:59.819Z,98.50
2019-05-28T09:37:09.871Z,97.20
2019-05-28T09:47:22.777Z,96.00
2019-05-28T09:57:44.267Z,95.50
2019-05-28T10:07:40.622Z,94.20
2019-05-28T10:17:52.402Z,95.50
2019-05-28T10:28:03.238Z,93.80
2019-05-28T10:38:15.041Z,92.60
2019-05-28T10:48:24.557Z,92.60
2019-05-28T10:58:32.754Z,92.80
2019-05-28T11:08:44.719Z,93.00
2019-05-28T11:18:51.878Z,93.20
2019-05-28T11:29:00.538Z,93.40
2019-05-28T11:39:09.960Z,95.20
2019-05-28T11:49:17.085Z,99.40
2019-05-28T11:59:23.380Z,99.90
2019-05-28T12:09:29.453Z,99.90
2019-05-28T12:19:35.897Z,99.90
2019-05-28T12:29:51.386Z,99.90
2019-05-28T12:39:50.453Z,99.90
2019-05-28T12:50:17.123Z,99.90
2019-05-28T13:00:08.438Z,99.90
2019-05-28T13:10:15.181Z,99.90
2019-05-28T13:20:23.125Z,99.90
2019-05-28T13:30:31.821Z,99.90
2019-05-28T13:40:38.311Z,99.90
2019-05-28T13:50:44.734Z,99.90
2019-05-28T14:00:51.683Z,99.90
2019-05-28T14:11:01.081Z,99.90
2019-05-28T14:21:09.131Z,99.90
2019-05-28T14:31:15.055Z,99.90
2019-05-28T14:41:23.098Z,99.90
2019-05-28T14:51:29.072Z,99.90
2019-05-28T15:01:34.931Z,99.90
2019-05-28T15:11:41.972Z,99.90
2019-05-28T15:21:50.365Z,99.90
2019-05-28T15:31:58.387Z,99.90
2019-05-28T15:42:05.049Z,99.90
2019-05-28T15:52:13.177Z,99.90
2019-05-28T16:02:19.642Z,99.90
2019-05-28T16:12:32.068Z,99.90
2019-05-28T16:22:38.043Z,99.90
2019-05-28T16:32:44.522Z,99.90
2019-05-28T16:42:51.105Z,99.90
2019-05-28T16:52:59.389Z,99.90
2019-05-28T17:03:06.759Z,99.90
2019-05-28T17:13:13.797Z,99.90
2019-05-28T17:23:22.072Z,99.90
2019-05-28T17:33:28.524Z,99.90
2019-05-28T17:43:36.090Z,99.90
2019-05-28T17:53:42.166Z,99.90
2019-05-28T18:03:50.269Z,99.90
2019-05-28T18:13:57.140Z,99.90
2019-05-28T18:24:03.999Z,99.90
2019-05-28T18:34:13.297Z,99.90
2019-05-28T18:44:20.686Z,99.90
2019-05-28T18:54:29.484Z,99.90
2019-05-28T19:04:35.814Z,99.90
2019-05-28T19:14:43.766Z,99.90
2019-05-28T19:24:52.804Z,99.90
2019-05-28T19:34:59.784Z,99.90
2019-05-28T19:45:06.054Z,99.90
2019-05-28T19:55:16.264Z,99.90
2019-05-28T20:05:23.844Z,99.90
2019-05-28T20:15:30.997Z,99.90
2019-05-28T20:25:38.643Z,99.90
2019-05-28T20:35:44.821Z,99.90
2019-05-28T20:45:51.017Z,99.90
2019-05-28T20:55:56.448Z,99.90
2019-05-28T21:06:01.895Z,99.90
2019-05-28T21:16:07.253Z,99.90
2019-05-28T21:26:12.629Z,99.90
2019-05-28T21:36:17.971Z,99.90
2019-05-28T21:46:23.408Z,99.90
2019-05-28T21:56:28.885Z,99.90
2019-05-28T22:06:34.357Z,99.90
2019-05-28T22:16:41.273Z,99.90
2019-05-28T22:26:46.683Z,99.90
2019-05-28T22:36:52.467Z,99.90
2019-05-28T22:46:58.839Z,99.90
2019-05-28T22:57:05.634Z,99.90
2019-05-28T23:07:11.508Z,99.90
2019-05-28T23:17:16.781Z,99.90
2019-05-28T23:27:22.188Z,99.90
2019-05-28T23:37:27.488Z,99.90
2019-05-28T23:47:32.846Z,99.90
2019-05-28T23:57:38.188Z,99.90
